sensor_id;sensor_type;location;lat;lon;timestamp;P1;durP1;ratioP1;P2;durP2;ratioP2
5559;SDS011;2803;47.916;8.074;2022-09-09T00:01:36;3.07;;;1.13;;
5559;SDS011;2803;47.916;8.074;2022-09-09T00:04:10;7.80;;;1.37;;
5559;SDS011;2803;47.916;8.074;2022-09-09T00:06:45;3.23;;;1.10;;
5559;SDS011;2803;47.916;8.074;2022-09-09T00:09:17;3.20;;;1.20;;
5559;SDS011;2803;47.916;8.074;2022-09-09T00:11:46;3.43;;;1.30;;
5559;SDS011;2803;47.916;8.074;2022-09-09T00:14:18;2.37;;;1.20;;
5559;SDS011;2803;47.916;8.074;2022-09-09T00:16:50;3.43;;;1.27;;
5559;SDS011;2803;47.916;8.074;2022-09-09T00:19:22;7.07;;;1.70;;
5559;SDS011;2803;47.916;8.074;2022-09-09T00:21:59;2.63;;;1.43;;
5559;SDS011;2803;47.916;8.074;2022-09-09T00:24:35;7.80;;;1.20;;
5559;SDS011;2803;47.916;8.074;2022-09-09T00:27:06;2.67;;;1.10;;
5559;SDS011;2803;47.916;8.074;2022-09-09T00:29:42;8.20;;;1.57;;
5559;SDS011;2803;47.916;8.074;2022-09-09T00:32:13;4.40;;;1.30;;
5559;SDS011;2803;47.916;8.074;2022-09-09T00:34:44;6.40;;;1.37;;
5559;SDS011;2803;47.916;8.074;2022-09-09T00:37:15;3.60;;;1.43;;
5559;SDS011;2803;47.916;8.074;2022-09-09T00:39:44;3.90;;;1.63;;
5559;SDS011;2803;47.916;8.074;2022-09-09T00:42:13;2.93;;;1.03;;
5559;SDS011;2803;47.916;8.074;2022-09-09T00:44:51;2.73;;;1.07;;
5559;SDS011;2803;47.916;8.074;2022-09-09T00:50:12;11.60;;;1.20;;
5559;SDS011;2803;47.916;8.074;2022-09-09T00:52:55;8.47;;;1.53;;
5559;SDS011;2803;47.916;8.074;2022-09-09T00:55:33;3.53;;;1.53;;
5559;SDS011;2803;47.916;8.074;2022-09-09T00:58:09;4.03;;;1.13;;
5559;SDS011;2803;47.916;8.074;2022-09-09T01:00:38;2.47;;;1.20;;
5559;SDS011;2803;47.916;8.074;2022-09-09T01:03:13;1.73;;;1.00;;
5559;SDS011;2803;47.916;8.074;2022-09-09T01:05:51;5.90;;;1.13;;
5559;SDS011;2803;47.916;8.074;2022-09-09T01:08:33;6.90;;;1.20;;
5559;SDS011;2803;47.916;8.074;2022-09-09T01:11:10;4.30;;;1.10;;
5559;SDS011;2803;47.916;8.074;2022-09-09T01:13:41;3.20;;;1.13;;
5559;SDS011;2803;47.916;8.074;2022-09-09T01:16:09;5.30;;;1.60;;
5559;SDS011;2803;47.916;8.074;2022-09-09T01:18:38;4.97;;;1.30;;
5559;SDS011;2803;47.916;8.074;2022-09-09T01:21:13;2.93;;;1.20;;
5559;SDS011;2803;47.916;8.074;2022-09-09T01:23:57;2.17;;;1.13;;
5559;SDS011;2803;47.916;8.074;2022-09-09T01:26:35;6.80;;;1.50;;
5559;SDS011;2803;47.916;8.074;2022-09-09T01:29:06;4.57;;;1.17;;
5559;SDS011;2803;47.916;8.074;2022-09-09T01:31:36;2.37;;;1.33;;
5559;SDS011;2803;47.916;8.074;2022-09-09T01:34:07;3.10;;;1.00;;
5559;SDS011;2803;47.916;8.074;2022-09-09T01:36:37;2.60;;;1.33;;
5559;SDS011;2803;47.916;8.074;2022-09-09T01:39:08;7.03;;;1.50;;
5559;SDS011;2803;47.916;8.074;2022-09-09T01:41:36;3.63;;;1.20;;
5559;SDS011;2803;47.916;8.074;2022-09-09T01:44:04;1.67;;;0.90;;
5559;SDS011;2803;47.916;8.074;2022-09-09T01:46:31;4.30;;;1.30;;
5559;SDS011;2803;47.916;8.074;2022-09-09T01:48:58;2.13;;;1.20;;
5559;SDS011;2803;47.916;8.074;2022-09-09T01:51:26;5.07;;;1.63;;
5559;SDS011;2803;47.916;8.074;2022-09-09T01:53:53;10.70;;;1.70;;
5559;SDS011;2803;47.916;8.074;2022-09-09T01:56:24;14.10;;;2.37;;
5559;SDS011;2803;47.916;8.074;2022-09-09T01:59:05;3.40;;;1.30;;
5559;SDS011;2803;47.916;8.074;2022-09-09T02:01:42;12.50;;;1.83;;
5559;SDS011;2803;47.916;8.074;2022-09-09T02:04:22;8.97;;;2.20;;
5559;SDS011;2803;47.916;8.074;2022-09-09T02:06:58;6.13;;;1.90;;
5559;SDS011;2803;47.916;8.074;2022-09-09T02:09:26;5.80;;;2.23;;
5559;SDS011;2803;47.916;8.074;2022-09-09T02:11:57;3.30;;;1.67;;
5559;SDS011;2803;47.916;8.074;2022-09-09T02:14:30;8.00;;;1.50;;
5559;SDS011;2803;47.916;8.074;2022-09-09T02:17:03;9.53;;;1.77;;
5559;SDS011;2803;47.916;8.074;2022-09-09T02:19:36;7.80;;;1.93;;
5559;SDS011;2803;47.916;8.074;2022-09-09T02:22:06;12.20;;;2.00;;
5559;SDS011;2803;47.916;8.074;2022-09-09T02:24:34;10.33;;;2.00;;
5559;SDS011;2803;47.916;8.074;2022-09-09T02:27:03;7.60;;;2.20;;
5559;SDS011;2803;47.916;8.074;2022-09-09T02:29:35;4.70;;;1.73;;
5559;SDS011;2803;47.916;8.074;2022-09-09T02:32:06;8.97;;;2.30;;
5559;SDS011;2803;47.916;8.074;2022-09-09T02:34:36;7.23;;;1.77;;
5559;SDS011;2803;47.916;8.074;2022-09-09T02:37:08;15.43;;;1.93;;
5559;SDS011;2803;47.916;8.074;2022-09-09T02:39:36;7.23;;;1.97;;
5559;SDS011;2803;47.916;8.074;2022-09-09T02:42:03;4.30;;;1.47;;
5559;SDS011;2803;47.916;8.074;2022-09-09T02:44:30;7.30;;;1.80;;
5559;SDS011;2803;47.916;8.074;2022-09-09T02:47:03;6.93;;;1.73;;
5559;SDS011;2803;47.916;8.074;2022-09-09T02:49:40;3.73;;;2.00;;
5559;SDS011;2803;47.916;8.074;2022-09-09T02:52:15;4.50;;;1.80;;
5559;SDS011;2803;47.916;8.074;2022-09-09T02:54:47;4.70;;;1.40;;
5559;SDS011;2803;47.916;8.074;2022-09-09T02:57:19;7.20;;;1.77;;
5559;SDS011;2803;47.916;8.074;2022-09-09T02:59:49;7.70;;;2.13;;
5559;SDS011;2803;47.916;8.074;2022-09-09T03:02:19;4.13;;;1.70;;
5559;SDS011;2803;47.916;8.074;2022-09-09T03:04:45;5.50;;;1.50;;
5559;SDS011;2803;47.916;8.074;2022-09-09T03:07:15;10.10;;;1.60;;
5559;SDS011;2803;47.916;8.074;2022-09-09T03:09:42;2.90;;;1.50;;
5559;SDS011;2803;47.916;8.074;2022-09-09T03:12:09;2.73;;;1.63;;
5559;SDS011;2803;47.916;8.074;2022-09-09T03:14:36;2.40;;;1.57;;
5559;SDS011;2803;47.916;8.074;2022-09-09T03:17:03;8.87;;;2.00;;
5559;SDS011;2803;47.916;8.074;2022-09-09T03:19:31;2.20;;;1.53;;
5559;SDS011;2803;47.916;8.074;2022-09-09T03:21:58;5.23;;;1.33;;
5559;SDS011;2803;47.916;8.074;2022-09-09T03:24:25;9.10;;;2.17;;
5559;SDS011;2803;47.916;8.074;2022-09-09T03:26:51;2.37;;;1.40;;
5559;SDS011;2803;47.916;8.074;2022-09-09T03:29:18;2.73;;;1.57;;
5559;SDS011;2803;47.916;8.074;2022-09-09T03:31:45;2.53;;;1.90;;
5559;SDS011;2803;47.916;8.074;2022-09-09T03:34:12;6.30;;;1.60;;
5559;SDS011;2803;47.916;8.074;2022-09-09T03:36:40;3.33;;;1.70;;
5559;SDS011;2803;47.916;8.074;2022-09-09T03:39:07;3.23;;;1.57;;
5559;SDS011;2803;47.916;8.074;2022-09-09T03:41:33;3.50;;;2.00;;
5559;SDS011;2803;47.916;8.074;2022-09-09T03:44:00;6.50;;;1.80;;
5559;SDS011;2803;47.916;8.074;2022-09-09T03:46:26;3.37;;;1.90;;
5559;SDS011;2803;47.916;8.074;2022-09-09T03:48:53;7.87;;;1.70;;
5559;SDS011;2803;47.916;8.074;2022-09-09T03:51:20;4.10;;;2.00;;
5559;SDS011;2803;47.916;8.074;2022-09-09T03:53:48;7.50;;;1.90;;
5559;SDS011;2803;47.916;8.074;2022-09-09T03:56:15;4.93;;;1.67;;
5559;SDS011;2803;47.916;8.074;2022-09-09T03:58:42;3.40;;;1.50;;
5559;SDS011;2803;47.916;8.074;2022-09-09T04:01:09;3.90;;;1.37;;
5559;SDS011;2803;47.916;8.074;2022-09-09T04:03:38;9.13;;;2.17;;
5559;SDS011;2803;47.916;8.074;2022-09-09T04:06:06;5.73;;;1.50;;
5559;SDS011;2803;47.916;8.074;2022-09-09T04:08:34;4.60;;;1.90;;
5559;SDS011;2803;47.916;8.074;2022-09-09T04:11:03;3.67;;;1.77;;
5559;SDS011;2803;47.916;8.074;2022-09-09T04:13:31;4.23;;;1.47;;
5559;SDS011;2803;47.916;8.074;2022-09-09T04:15:59;2.13;;;1.30;;
5559;SDS011;2803;47.916;8.074;2022-09-09T04:18:27;4.10;;;1.60;;
5559;SDS011;2803;47.916;8.074;2022-09-09T04:20:54;2.33;;;1.40;;
5559;SDS011;2803;47.916;8.074;2022-09-09T04:23:22;3.77;;;1.50;;
5559;SDS011;2803;47.916;8.074;2022-09-09T04:25:50;4.20;;;1.90;;
5559;SDS011;2803;47.916;8.074;2022-09-09T04:28:20;5.43;;;1.50;;
5559;SDS011;2803;47.916;8.074;2022-09-09T04:30:48;4.97;;;1.70;;
5559;SDS011;2803;47.916;8.074;2022-09-09T04:33:16;5.47;;;1.40;;
5559;SDS011;2803;47.916;8.074;2022-09-09T04:35:43;3.33;;;1.80;;
5559;SDS011;2803;47.916;8.074;2022-09-09T04:38:11;5.77;;;1.90;;
5559;SDS011;2803;47.916;8.074;2022-09-09T04:40:38;2.93;;;1.80;;
5559;SDS011;2803;47.916;8.074;2022-09-09T04:43:07;2.70;;;1.57;;
5559;SDS011;2803;47.916;8.074;2022-09-09T04:45:36;3.20;;;1.90;;
5559;SDS011;2803;47.916;8.074;2022-09-09T04:48:05;3.90;;;1.53;;
5559;SDS011;2803;47.916;8.074;2022-09-09T04:50:32;5.47;;;1.67;;
5559;SDS011;2803;47.916;8.074;2022-09-09T04:52:59;5.77;;;1.60;;
5559;SDS011;2803;47.916;8.074;2022-09-09T04:55:26;2.50;;;1.40;;
5559;SDS011;2803;47.916;8.074;2022-09-09T04:57:53;5.10;;;1.47;;
5559;SDS011;2803;47.916;8.074;2022-09-09T05:00:20;5.30;;;1.53;;
5559;SDS011;2803;47.916;8.074;2022-09-09T05:02:48;6.60;;;1.60;;
5559;SDS011;2803;47.916;8.074;2022-09-09T05:05:14;5.80;;;1.87;;
5559;SDS011;2803;47.916;8.074;2022-09-09T05:07:41;13.03;;;2.00;;
5559;SDS011;2803;47.916;8.074;2022-09-09T05:10:08;6.40;;;1.80;;
5559;SDS011;2803;47.916;8.074;2022-09-09T05:12:35;7.37;;;1.80;;
5559;SDS011;2803;47.916;8.074;2022-09-09T05:15:02;5.00;;;2.03;;
5559;SDS011;2803;47.916;8.074;2022-09-09T05:17:29;5.47;;;1.80;;
5559;SDS011;2803;47.916;8.074;2022-09-09T05:19:57;4.43;;;1.63;;
5559;SDS011;2803;47.916;8.074;2022-09-09T05:22:24;4.57;;;1.93;;
5559;SDS011;2803;47.916;8.074;2022-09-09T05:24:51;8.17;;;2.03;;
5559;SDS011;2803;47.916;8.074;2022-09-09T05:27:17;4.27;;;1.70;;
5559;SDS011;2803;47.916;8.074;2022-09-09T05:29:44;8.07;;;2.90;;
5559;SDS011;2803;47.916;8.074;2022-09-09T05:32:12;4.90;;;1.60;;
5559;SDS011;2803;47.916;8.074;2022-09-09T05:34:40;5.83;;;1.50;;
5559;SDS011;2803;47.916;8.074;2022-09-09T05:37:07;3.57;;;1.33;;
5559;SDS011;2803;47.916;8.074;2022-09-09T05:39:34;5.50;;;1.43;;
5559;SDS011;2803;47.916;8.074;2022-09-09T05:42:02;5.73;;;2.07;;
5559;SDS011;2803;47.916;8.074;2022-09-09T05:44:29;8.03;;;1.60;;
5559;SDS011;2803;47.916;8.074;2022-09-09T05:46:56;6.00;;;1.63;;
5559;SDS011;2803;47.916;8.074;2022-09-09T05:49:23;3.80;;;1.50;;
5559;SDS011;2803;47.916;8.074;2022-09-09T05:51:50;6.00;;;1.90;;
5559;SDS011;2803;47.916;8.074;2022-09-09T05:54:17;7.00;;;2.00;;
5559;SDS011;2803;47.916;8.074;2022-09-09T05:56:44;9.50;;;1.87;;
5559;SDS011;2803;47.916;8.074;2022-09-09T05:59:11;4.27;;;1.20;;
5559;SDS011;2803;47.916;8.074;2022-09-09T06:01:37;7.03;;;2.50;;
5559;SDS011;2803;47.916;8.074;2022-09-09T06:04:05;11.10;;;1.90;;
5559;SDS011;2803;47.916;8.074;2022-09-09T06:06:34;7.07;;;1.63;;
5559;SDS011;2803;47.916;8.074;2022-09-09T06:09:02;5.83;;;1.80;;
5559;SDS011;2803;47.916;8.074;2022-09-09T06:11:33;4.73;;;2.00;;
5559;SDS011;2803;47.916;8.074;2022-09-09T06:14:01;6.80;;;1.83;;
5559;SDS011;2803;47.916;8.074;2022-09-09T06:16:28;7.10;;;1.57;;
5559;SDS011;2803;47.916;8.074;2022-09-09T06:18:57;8.73;;;2.93;;
5559;SDS011;2803;47.916;8.074;2022-09-09T06:21:25;9.20;;;3.97;;
5559;SDS011;2803;47.916;8.074;2022-09-09T06:23:53;19.20;;;8.03;;
5559;SDS011;2803;47.916;8.074;2022-09-09T06:26:20;21.23;;;8.57;;
5559;SDS011;2803;47.916;8.074;2022-09-09T06:28:52;15.43;;;6.63;;
5559;SDS011;2803;47.916;8.074;2022-09-09T06:31:20;12.30;;;5.63;;
5559;SDS011;2803;47.916;8.074;2022-09-09T06:33:48;16.13;;;5.27;;
5559;SDS011;2803;47.916;8.074;2022-09-09T06:36:17;15.30;;;7.37;;
5559;SDS011;2803;47.916;8.074;2022-09-09T06:38:44;13.27;;;5.77;;
5559;SDS011;2803;47.916;8.074;2022-09-09T06:41:12;8.07;;;3.60;;
5559;SDS011;2803;47.916;8.074;2022-09-09T06:43:40;9.50;;;3.57;;
5559;SDS011;2803;47.916;8.074;2022-09-09T06:46:10;12.90;;;5.13;;
5559;SDS011;2803;47.916;8.074;2022-09-09T06:48:38;7.33;;;4.63;;
5559;SDS011;2803;47.916;8.074;2022-09-09T06:51:07;14.37;;;5.20;;
5559;SDS011;2803;47.916;8.074;2022-09-09T06:53:36;10.27;;;4.37;;
5559;SDS011;2803;47.916;8.074;2022-09-09T06:56:17;12.33;;;3.73;;
5559;SDS011;2803;47.916;8.074;2022-09-09T06:58:45;10.20;;;2.57;;
5559;SDS011;2803;47.916;8.074;2022-09-09T07:01:15;8.70;;;2.80;;
5559;SDS011;2803;47.916;8.074;2022-09-09T07:03:45;7.10;;;2.63;;
5559;SDS011;2803;47.916;8.074;2022-09-09T07:06:13;5.50;;;2.00;;
5559;SDS011;2803;47.916;8.074;2022-09-09T07:08:41;8.63;;;2.10;;
5559;SDS011;2803;47.916;8.074;2022-09-09T07:11:08;9.83;;;2.43;;
5559;SDS011;2803;47.916;8.074;2022-09-09T07:13:36;6.27;;;1.53;;
5559;SDS011;2803;47.916;8.074;2022-09-09T07:16:03;8.67;;;2.27;;
5559;SDS011;2803;47.916;8.074;2022-09-09T07:18:32;5.27;;;1.80;;
5559;SDS011;2803;47.916;8.074;2022-09-09T07:20:59;4.40;;;1.67;;
5559;SDS011;2803;47.916;8.074;2022-09-09T07:23:27;5.30;;;1.60;;
5559;SDS011;2803;47.916;8.074;2022-09-09T07:25:54;4.30;;;2.00;;
5559;SDS011;2803;47.916;8.074;2022-09-09T07:28:21;4.50;;;1.43;;
5559;SDS011;2803;47.916;8.074;2022-09-09T07:30:56;8.80;;;2.90;;
5559;SDS011;2803;47.916;8.074;2022-09-09T07:33:24;7.30;;;1.30;;
5559;SDS011;2803;47.916;8.074;2022-09-09T07:35:52;4.80;;;1.80;;
5559;SDS011;2803;47.916;8.074;2022-09-09T07:38:19;10.07;;;2.03;;
5559;SDS011;2803;47.916;8.074;2022-09-09T07:40:47;7.73;;;1.60;;
5559;SDS011;2803;47.916;8.074;2022-09-09T07:43:14;4.43;;;1.43;;
5559;SDS011;2803;47.916;8.074;2022-09-09T07:45:42;6.73;;;1.60;;
5559;SDS011;2803;47.916;8.074;2022-09-09T07:48:08;8.77;;;2.03;;
5559;SDS011;2803;47.916;8.074;2022-09-09T07:50:36;9.23;;;2.57;;
5559;SDS011;2803;47.916;8.074;2022-09-09T07:53:04;3.63;;;1.83;;
5559;SDS011;2803;47.916;8.074;2022-09-09T07:55:31;8.37;;;2.20;;
5559;SDS011;2803;47.916;8.074;2022-09-09T07:57:57;5.60;;;1.70;;
5559;SDS011;2803;47.916;8.074;2022-09-09T08:00:24;8.17;;;1.80;;
5559;SDS011;2803;47.916;8.074;2022-09-09T08:02:53;8.80;;;1.80;;
5559;SDS011;2803;47.916;8.074;2022-09-09T08:05:20;6.67;;;1.90;;
5559;SDS011;2803;47.916;8.074;2022-09-09T08:07:47;12.80;;;2.27;;
5559;SDS011;2803;47.916;8.074;2022-09-09T08:10:15;8.93;;;2.00;;
5559;SDS011;2803;47.916;8.074;2022-09-09T08:12:43;9.70;;;1.90;;
5559;SDS011;2803;47.916;8.074;2022-09-09T08:15:10;8.73;;;1.70;;
5559;SDS011;2803;47.916;8.074;2022-09-09T08:17:37;13.80;;;1.70;;
5559;SDS011;2803;47.916;8.074;2022-09-09T08:20:04;9.20;;;1.67;;
5559;SDS011;2803;47.916;8.074;2022-09-09T08:22:31;10.33;;;1.53;;
5559;SDS011;2803;47.916;8.074;2022-09-09T08:24:59;3.40;;;1.47;;
5559;SDS011;2803;47.916;8.074;2022-09-09T08:27:28;7.03;;;1.83;;
5559;SDS011;2803;47.916;8.074;2022-09-09T08:29:55;12.50;;;1.90;;
5559;SDS011;2803;47.916;8.074;2022-09-09T08:32:21;6.20;;;1.63;;
5559;SDS011;2803;47.916;8.074;2022-09-09T08:34:48;4.40;;;1.40;;
5559;SDS011;2803;47.916;8.074;2022-09-09T08:37:16;5.10;;;1.33;;
5559;SDS011;2803;47.916;8.074;2022-09-09T08:39:42;9.67;;;1.50;;
5559;SDS011;2803;47.916;8.074;2022-09-09T08:45:00;5.17;;;1.40;;
5559;SDS011;2803;47.916;8.074;2022-09-09T08:47:39;10.27;;;2.00;;
5559;SDS011;2803;47.916;8.074;2022-09-09T08:50:17;5.27;;;1.83;;
5559;SDS011;2803;47.916;8.074;2022-09-09T08:52:51;12.13;;;1.70;;
5559;SDS011;2803;47.916;8.074;2022-09-09T08:55:24;6.37;;;1.90;;
5559;SDS011;2803;47.916;8.074;2022-09-09T08:57:57;5.40;;;1.60;;
5559;SDS011;2803;47.916;8.074;2022-09-09T09:00:36;7.03;;;1.93;;
5559;SDS011;2803;47.916;8.074;2022-09-09T09:03:12;12.23;;;1.50;;
5559;SDS011;2803;47.916;8.074;2022-09-09T09:05:46;11.53;;;2.10;;
5559;SDS011;2803;47.916;8.074;2022-09-09T09:08:17;6.77;;;1.53;;
5559;SDS011;2803;47.916;8.074;2022-09-09T09:10:50;10.10;;;1.80;;
5559;SDS011;2803;47.916;8.074;2022-09-09T09:13:22;7.00;;;1.30;;
5559;SDS011;2803;47.916;8.074;2022-09-09T09:16:02;7.50;;;1.70;;
5559;SDS011;2803;47.916;8.074;2022-09-09T09:18:36;9.23;;;1.50;;
5559;SDS011;2803;47.916;8.074;2022-09-09T09:21:03;5.17;;;1.30;;
5559;SDS011;2803;47.916;8.074;2022-09-09T09:23:38;10.27;;;2.10;;
5559;SDS011;2803;47.916;8.074;2022-09-09T09:26:09;3.43;;;1.07;;
5559;SDS011;2803;47.916;8.074;2022-09-09T09:28:38;4.10;;;1.20;;
5559;SDS011;2803;47.916;8.074;2022-09-09T09:31:07;2.40;;;0.90;;
5559;SDS011;2803;47.916;8.074;2022-09-09T09:33:38;7.37;;;1.80;;
5559;SDS011;2803;47.916;8.074;2022-09-09T09:36:12;7.80;;;1.60;;
5559;SDS011;2803;47.916;8.074;2022-09-09T09:38:51;8.70;;;1.53;;
5559;SDS011;2803;47.916;8.074;2022-09-09T09:41:28;3.23;;;0.83;;
5559;SDS011;2803;47.916;8.074;2022-09-09T09:43:56;4.17;;;1.17;;
5559;SDS011;2803;47.916;8.074;2022-09-09T09:46:24;4.97;;;0.87;;
5559;SDS011;2803;47.916;8.074;2022-09-09T09:48:59;4.23;;;0.97;;
5559;SDS011;2803;47.916;8.074;2022-09-09T09:51:26;4.83;;;1.27;;
5559;SDS011;2803;47.916;8.074;2022-09-09T09:54:06;2.27;;;0.87;;
5559;SDS011;2803;47.916;8.074;2022-09-09T09:56:39;4.07;;;1.00;;
5559;SDS011;2803;47.916;8.074;2022-09-09T09:59:19;4.60;;;1.20;;
5559;SDS011;2803;47.916;8.074;2022-09-09T10:01:47;3.83;;;1.10;;
5559;SDS011;2803;47.916;8.074;2022-09-09T10:04:15;2.87;;;0.97;;
5559;SDS011;2803;47.916;8.074;2022-09-09T10:06:45;6.07;;;1.00;;
5559;SDS011;2803;47.916;8.074;2022-09-09T10:09:20;6.43;;;2.17;;
5559;SDS011;2803;47.916;8.074;2022-09-09T10:11:50;5.90;;;1.00;;
5559;SDS011;2803;47.916;8.074;2022-09-09T10:14:25;2.13;;;0.80;;
5559;SDS011;2803;47.916;8.074;2022-09-09T10:17:04;3.20;;;0.80;;
5559;SDS011;2803;47.916;8.074;2022-09-09T10:19:45;5.13;;;1.20;;
5559;SDS011;2803;47.916;8.074;2022-09-09T10:22:25;2.97;;;0.93;;
5559;SDS011;2803;47.916;8.074;2022-09-09T10:24:58;8.43;;;1.20;;
5559;SDS011;2803;47.916;8.074;2022-09-09T10:27:42;4.43;;;1.10;;
5559;SDS011;2803;47.916;8.074;2022-09-09T10:30:20;2.20;;;0.70;;
5559;SDS011;2803;47.916;8.074;2022-09-09T10:32:53;3.00;;;1.20;;
5559;SDS011;2803;47.916;8.074;2022-09-09T10:35:27;6.07;;;1.10;;
5559;SDS011;2803;47.916;8.074;2022-09-09T10:38:03;10.30;;;1.20;;
5559;SDS011;2803;47.916;8.074;2022-09-09T10:40:42;1.80;;;0.73;;
5559;SDS011;2803;47.916;8.074;2022-09-09T10:43:21;4.20;;;1.20;;
5559;SDS011;2803;47.916;8.074;2022-09-09T10:46:06;5.40;;;1.03;;
5559;SDS011;2803;47.916;8.074;2022-09-09T10:48:41;3.83;;;1.13;;
5559;SDS011;2803;47.916;8.074;2022-09-09T10:51:22;4.27;;;1.20;;
5559;SDS011;2803;47.916;8.074;2022-09-09T10:54:00;4.77;;;1.10;;
5559;SDS011;2803;47.916;8.074;2022-09-09T10:56:38;2.03;;;0.73;;
5559;SDS011;2803;47.916;8.074;2022-09-09T10:59:09;3.50;;;1.10;;
5559;SDS011;2803;47.916;8.074;2022-09-09T11:01:43;6.23;;;1.17;;
5559;SDS011;2803;47.916;8.074;2022-09-09T11:04:15;13.10;;;1.60;;
5559;SDS011;2803;47.916;8.074;2022-09-09T11:06:47;2.90;;;1.00;;
5559;SDS011;2803;47.916;8.074;2022-09-09T11:09:18;5.40;;;1.13;;
5559;SDS011;2803;47.916;8.074;2022-09-09T11:11:49;4.63;;;1.10;;
5559;SDS011;2803;47.916;8.074;2022-09-09T11:14:19;8.80;;;1.10;;
5559;SDS011;2803;47.916;8.074;2022-09-09T11:16:56;3.63;;;1.33;;
5559;SDS011;2803;47.916;8.074;2022-09-09T11:19:26;3.93;;;1.00;;
5559;SDS011;2803;47.916;8.074;2022-09-09T11:21:57;6.60;;;0.97;;
5559;SDS011;2803;47.916;8.074;2022-09-09T11:24:26;12.03;;;1.80;;
5559;SDS011;2803;47.916;8.074;2022-09-09T11:26:58;2.53;;;1.03;;
5559;SDS011;2803;47.916;8.074;2022-09-09T11:29:36;8.33;;;2.20;;
5559;SDS011;2803;47.916;8.074;2022-09-09T11:32:33;9.47;;;2.37;;
5559;SDS011;2803;47.916;8.074;2022-09-09T11:35:19;4.13;;;1.00;;
5559;SDS011;2803;47.916;8.074;2022-09-09T11:37:55;3.33;;;1.03;;
5559;SDS011;2803;47.916;8.074;2022-09-09T11:40:31;3.63;;;1.47;;
5559;SDS011;2803;47.916;8.074;2022-09-09T11:43:01;4.43;;;1.40;;
5559;SDS011;2803;47.916;8.074;2022-09-09T11:45:31;3.13;;;1.37;;
5559;SDS011;2803;47.916;8.074;2022-09-09T11:48:02;7.80;;;1.47;;
5559;SDS011;2803;47.916;8.074;2022-09-09T11:50:31;3.97;;;1.10;;
5559;SDS011;2803;47.916;8.074;2022-09-09T11:55:47;6.57;;;1.37;;
5559;SDS011;2803;47.916;8.074;2022-09-09T11:58:25;3.30;;;1.10;;
5559;SDS011;2803;47.916;8.074;2022-09-09T12:00:54;7.83;;;1.13;;
5559;SDS011;2803;47.916;8.074;2022-09-09T12:06:09;5.03;;;1.20;;
5559;SDS011;2803;47.916;8.074;2022-09-09T12:08:40;4.50;;;1.40;;
5559;SDS011;2803;47.916;8.074;2022-09-09T12:11:10;9.73;;;1.10;;
5559;SDS011;2803;47.916;8.074;2022-09-09T12:13:37;3.30;;;1.10;;
5559;SDS011;2803;47.916;8.074;2022-09-09T12:16:04;7.37;;;0.90;;
5559;SDS011;2803;47.916;8.074;2022-09-09T12:18:32;6.60;;;1.20;;
5559;SDS011;2803;47.916;8.074;2022-09-09T12:21:03;5.97;;;1.20;;
5559;SDS011;2803;47.916;8.074;2022-09-09T12:23:40;5.73;;;1.30;;
5559;SDS011;2803;47.916;8.074;2022-09-09T12:28:58;6.80;;;1.40;;
5559;SDS011;2803;47.916;8.074;2022-09-09T12:31:34;4.13;;;1.10;;
5559;SDS011;2803;47.916;8.074;2022-09-09T12:34:09;5.30;;;1.07;;
5559;SDS011;2803;47.916;8.074;2022-09-09T12:36:40;11.07;;;2.10;;
5559;SDS011;2803;47.916;8.074;2022-09-09T12:39:10;9.07;;;1.30;;
5559;SDS011;2803;47.916;8.074;2022-09-09T12:41:50;8.27;;;1.20;;
5559;SDS011;2803;47.916;8.074;2022-09-09T12:44:21;4.80;;;1.10;;
5559;SDS011;2803;47.916;8.074;2022-09-09T12:46:48;4.33;;;1.10;;
5559;SDS011;2803;47.916;8.074;2022-09-09T12:49:24;6.65;;;1.50;;
5559;SDS011;2803;47.916;8.074;2022-09-09T12:51:57;6.43;;;1.40;;
5559;SDS011;2803;47.916;8.074;2022-09-09T12:54:25;6.50;;;1.10;;
5559;SDS011;2803;47.916;8.074;2022-09-09T12:56:53;5.77;;;1.50;;
5559;SDS011;2803;47.916;8.074;2022-09-09T12:59:22;9.03;;;1.10;;
5559;SDS011;2803;47.916;8.074;2022-09-09T13:01:55;7.23;;;1.20;;
5559;SDS011;2803;47.916;8.074;2022-09-09T13:04:22;6.57;;;1.10;;
5559;SDS011;2803;47.916;8.074;2022-09-09T13:06:49;7.07;;;1.20;;
5559;SDS011;2803;47.916;8.074;2022-09-09T13:09:18;6.33;;;1.17;;
5559;SDS011;2803;47.916;8.074;2022-09-09T13:11:46;6.87;;;1.50;;
5559;SDS011;2803;47.916;8.074;2022-09-09T13:14:16;10.40;;;1.77;;
5559;SDS011;2803;47.916;8.074;2022-09-09T13:16:53;9.77;;;1.80;;
5559;SDS011;2803;47.916;8.074;2022-09-09T13:19:21;6.50;;;1.10;;
5559;SDS011;2803;47.916;8.074;2022-09-09T13:21:50;9.30;;;2.37;;
5559;SDS011;2803;47.916;8.074;2022-09-09T13:24:24;4.03;;;1.00;;
5559;SDS011;2803;47.916;8.074;2022-09-09T13:26:54;5.00;;;1.50;;
5559;SDS011;2803;47.916;8.074;2022-09-09T13:29:22;7.30;;;1.20;;
5559;SDS011;2803;47.916;8.074;2022-09-09T13:31:49;2.90;;;0.93;;
5559;SDS011;2803;47.916;8.074;2022-09-09T13:34:25;12.27;;;1.20;;
5559;SDS011;2803;47.916;8.074;2022-09-09T13:36:54;8.43;;;1.10;;
5559;SDS011;2803;47.916;8.074;2022-09-09T13:39:26;7.50;;;1.43;;
5559;SDS011;2803;47.916;8.074;2022-09-09T13:41:53;6.90;;;1.00;;
5559;SDS011;2803;47.916;8.074;2022-09-09T13:44:20;3.30;;;0.80;;
5559;SDS011;2803;47.916;8.074;2022-09-09T13:46:59;3.70;;;1.10;;
5559;SDS011;2803;47.916;8.074;2022-09-09T13:49:28;6.10;;;1.50;;
5559;SDS011;2803;47.916;8.074;2022-09-09T13:52:03;9.00;;;1.50;;
5559;SDS011;2803;47.916;8.074;2022-09-09T13:54:33;4.03;;;0.80;;
5559;SDS011;2803;47.916;8.074;2022-09-09T13:57:00;3.77;;;1.00;;
5559;SDS011;2803;47.916;8.074;2022-09-09T13:59:29;2.03;;;0.70;;
5559;SDS011;2803;47.916;8.074;2022-09-09T14:01:56;1.80;;;0.80;;
5559;SDS011;2803;47.916;8.074;2022-09-09T14:04:23;1.93;;;1.07;;
5559;SDS011;2803;47.916;8.074;2022-09-09T14:06:50;4.73;;;1.00;;
5559;SDS011;2803;47.916;8.074;2022-09-09T14:09:17;3.23;;;1.13;;
5559;SDS011;2803;47.916;8.074;2022-09-09T14:11:45;6.20;;;1.10;;
5559;SDS011;2803;47.916;8.074;2022-09-09T14:14:12;4.33;;;1.57;;
5559;SDS011;2803;47.916;8.074;2022-09-09T14:16:39;1.10;;;0.60;;
5559;SDS011;2803;47.916;8.074;2022-09-09T14:19:05;3.87;;;1.13;;
5559;SDS011;2803;47.916;8.074;2022-09-09T14:21:33;3.17;;;0.93;;
5559;SDS011;2803;47.916;8.074;2022-09-09T14:24:00;6.40;;;1.20;;
5559;SDS011;2803;47.916;8.074;2022-09-09T14:26:27;6.30;;;1.33;;
5559;SDS011;2803;47.916;8.074;2022-09-09T14:28:56;2.20;;;0.87;;
5559;SDS011;2803;47.916;8.074;2022-09-09T14:31:23;2.40;;;0.93;;
5559;SDS011;2803;47.916;8.074;2022-09-09T14:33:50;7.67;;;1.07;;
5559;SDS011;2803;47.916;8.074;2022-09-09T14:36:18;9.57;;;1.00;;
5559;SDS011;2803;47.916;8.074;2022-09-09T14:38:44;3.40;;;1.00;;
5559;SDS011;2803;47.916;8.074;2022-09-09T14:41:11;2.50;;;1.03;;
5559;SDS011;2803;47.916;8.074;2022-09-09T14:43:39;2.80;;;1.03;;
5559;SDS011;2803;47.916;8.074;2022-09-09T14:46:08;5.00;;;1.20;;
5559;SDS011;2803;47.916;8.074;2022-09-09T14:48:37;4.70;;;1.10;;
5559;SDS011;2803;47.916;8.074;2022-09-09T14:51:06;4.00;;;1.10;;
5559;SDS011;2803;47.916;8.074;2022-09-09T14:53:33;3.67;;;1.10;;
5559;SDS011;2803;47.916;8.074;2022-09-09T14:56:03;5.33;;;1.00;;
5559;SDS011;2803;47.916;8.074;2022-09-09T14:58:31;4.35;;;0.70;;
5559;SDS011;2803;47.916;8.074;2022-09-09T15:01:01;1.67;;;0.70;;
5559;SDS011;2803;47.916;8.074;2022-09-09T15:03:31;1.50;;;0.87;;
5559;SDS011;2803;47.916;8.074;2022-09-09T15:05:58;1.80;;;1.00;;
5559;SDS011;2803;47.916;8.074;2022-09-09T15:08:30;3.83;;;1.30;;
5559;SDS011;2803;47.916;8.074;2022-09-09T15:10:58;2.33;;;1.10;;
5559;SDS011;2803;47.916;8.074;2022-09-09T15:13:26;4.63;;;1.33;;
5559;SDS011;2803;47.916;8.074;2022-09-09T15:15:53;4.87;;;1.53;;
5559;SDS011;2803;47.916;8.074;2022-09-09T15:18:20;4.93;;;1.40;;
5559;SDS011;2803;47.916;8.074;2022-09-09T15:20:48;4.00;;;1.07;;
5559;SDS011;2803;47.916;8.074;2022-09-09T15:23:14;4.67;;;1.13;;
5559;SDS011;2803;47.916;8.074;2022-09-09T15:25:49;3.07;;;1.23;;
5559;SDS011;2803;47.916;8.074;2022-09-09T15:28:17;10.43;;;1.10;;
5559;SDS011;2803;47.916;8.074;2022-09-09T15:30:44;3.03;;;0.90;;
5559;SDS011;2803;47.916;8.074;2022-09-09T15:33:13;5.63;;;0.80;;
5559;SDS011;2803;47.916;8.074;2022-09-09T15:35:40;5.00;;;1.00;;
5559;SDS011;2803;47.916;8.074;2022-09-09T15:38:08;6.73;;;1.10;;
5559;SDS011;2803;47.916;8.074;2022-09-09T15:40:34;1.93;;;1.20;;
5559;SDS011;2803;47.916;8.074;2022-09-09T15:43:01;4.63;;;1.10;;
5559;SDS011;2803;47.916;8.074;2022-09-09T15:45:31;8.10;;;1.20;;
5559;SDS011;2803;47.916;8.074;2022-09-09T15:47:58;8.23;;;1.00;;